createdAt,value
2022-10-12T00:01:50.488Z,3.95
2022-10-12T00:06:51.986Z,3.60
2022-10-12T00:11:53.342Z,7.60
2022-10-12T00:16:54.691Z,8.80
2022-10-12T00:21:56.035Z,11.80
2022-10-12T00:26:57.437Z,9.82
2022-10-12T00:31:58.886Z,4.93
2022-10-12T00:37:00.291Z,13.50
2022-10-12T00:42:01.677Z,6.25
2022-10-12T00:47:14.455Z,7.88
2022-10-12T00:52:19.959Z,7.15
2022-10-12T00:57:22.713Z,6.78
2022-10-12T01:02:27.757Z,8.23
2022-10-12T01:07:29.147Z,6.60
2022-10-12T01:12:31.571Z,5.82
2022-10-12T01:17:43.460Z,3.88
2022-10-12T01:23:04.441Z,7.85
2022-10-12T01:28:19.996Z,5.65
2022-10-12T01:33:31.918Z,7.13
2022-10-12T01:38:41.591Z,7.82
2022-10-12T01:43:44.607Z,4.20
2022-10-12T01:48:49.037Z,8.65
2022-10-12T01:54:08.208Z,6.30
2022-10-12T01:59:29.775Z,7.90
2022-10-12T02:04:39.742Z,6.80
2022-10-12T02:09:41.374Z,6.20
2022-10-12T02:14:47.271Z,7.47
2022-10-12T02:19:58.071Z,7.22
2022-10-12T02:25:01.503Z,9.20
2022-10-12T02:30:03.508Z,5.53
2022-10-12T02:35:10.120Z,10.35
2022-10-12T02:40:34.904Z,7.47
2022-10-12T02:45:38.379Z,7.38
2022-10-12T02:50:40.169Z,9.15
2022-10-12T02:56:10.948Z,7.13
2022-10-12T03:01:14.178Z,5.45
2022-10-12T03:06:15.734Z,8.07
2022-10-12T03:11:17.087Z,7.65
2022-10-12T03:16:18.503Z,4.88
2022-10-12T03:21:19.925Z,9.25
2022-10-12T03:26:21.290Z,5.80
2022-10-12T03:31:22.680Z,5.43
2022-10-12T03:36:24.049Z,6.38
2022-10-12T03:41:25.480Z,9.70
2022-10-12T03:46:26.877Z,6.45
2022-10-12T03:51:28.283Z,8.18
2022-10-12T03:56:29.630Z,7.88
2022-10-12T04:01:31.081Z,10.43
2022-10-12T04:06:32.545Z,10.05
2022-10-12T04:11:33.941Z,6.63
2022-10-12T04:16:35.290Z,12.20
2022-10-12T04:21:36.643Z,6.03
2022-10-12T04:26:38.046Z,8.45
2022-10-12T04:31:40.326Z,6.82
2022-10-12T04:36:41.752Z,5.57
2022-10-12T04:41:43.143Z,5.20
2022-10-12T04:46:44.643Z,6.50
2022-10-12T04:51:46.006Z,6.15
2022-10-12T04:56:48.326Z,7.60
2022-10-12T05:01:50.288Z,5.10
2022-10-12T05:06:51.727Z,13.50
2022-10-12T05:11:53.118Z,10.77
2022-10-12T05:16:54.772Z,4.68
2022-10-12T05:21:56.223Z,7.90
2022-10-12T05:26:57.727Z,9.25
2022-10-12T05:31:59.145Z,6.70
2022-10-12T05:37:01.212Z,7.88
2022-10-12T05:42:03.816Z,8.85
2022-10-12T05:47:05.206Z,9.38
2022-10-12T05:52:06.695Z,8.18
2022-10-12T05:57:08.093Z,7.00
2022-10-12T06:02:18.460Z,6.70
2022-10-12T06:07:19.901Z,10.65
2022-10-12T06:12:21.282Z,7.55
2022-10-12T06:17:22.788Z,9.98
2022-10-12T06:22:24.156Z,8.52
2022-10-12T06:27:25.561Z,7.88
2022-10-12T06:32:26.939Z,10.50
2022-10-12T06:37:49.016Z,5.97
2022-10-12T06:42:54.864Z,8.82
2022-10-12T06:47:59.030Z,5.00
2022-10-12T06:53:00.400Z,8.40
2022-10-12T06:58:01.745Z,11.10
2022-10-12T07:03:03.758Z,16.67
2022-10-12T07:08:05.217Z,7.78
2022-10-12T07:13:06.590Z,10.68
2022-10-12T07:18:07.940Z,6.85
2022-10-12T07:23:09.382Z,6.65
2022-10-12T07:28:10.829Z,10.55
2022-10-12T07:33:12.575Z,6.18
2022-10-12T07:38:14.002Z,5.18
2022-10-12T07:43:16.618Z,14.50
2022-10-12T07:48:20.038Z,9.25
2022-10-12T07:53:21.899Z,6.00
2022-10-12T07:58:23.416Z,8.82
2022-10-12T08:03:24.912Z,9.98
2022-10-12T08:08:26.474Z,6.40
2022-10-12T08:13:28.018Z,11.73
2022-10-12T08:18:30.679Z,10.43
2022-10-12T08:23:32.388Z,8.57
2022-10-12T08:28:34.494Z,9.43
2022-10-12T08:33:36.028Z,7.88
2022-10-12T08:38:43.092Z,9.15
2022-10-12T08:44:06.270Z,6.70
2022-10-12T08:49:19.638Z,8.63
2022-10-12T08:54:25.921Z,5.95
2022-10-12T08:59:29.544Z,6.35
2022-10-12T09:04:49.196Z,12.77
2022-10-12T09:10:15.016Z,8.75
2022-10-12T09:15:22.466Z,10.85
2022-10-12T09:25:28.092Z,6.65
2022-10-12T09:30:30.119Z,7.82
2022-10-12T09:35:32.786Z,5.25
2022-10-12T09:40:34.174Z,9.48
2022-10-12T09:45:36.002Z,10.20
2022-10-12T09:50:48.047Z,6.18
2022-10-12T09:55:55.912Z,9.75
2022-10-12T10:01:21.603Z,11.60
2022-10-12T10:06:25.122Z,11.32
2022-10-12T10:11:30.840Z,8.95
2022-10-12T10:16:32.312Z,8.38
2022-10-12T10:21:35.809Z,5.55
2022-10-12T10:26:57.653Z,8.80
2022-10-12T10:32:16.010Z,9.52
2022-10-12T10:37:22.947Z,9.05
2022-10-12T10:42:30.133Z,7.20
2022-10-12T10:52:36.899Z,12.88
2022-10-12T10:57:42.875Z,10.93
2022-10-12T11:02:59.490Z,8.38
2022-10-12T11:08:20.673Z,9.33
2022-10-12T11:13:36.379Z,10.63
2022-10-12T11:19:18.178Z,12.27
2022-10-12T11:24:26.617Z,10.02
2022-10-12T11:29:28.347Z,12.57
2022-10-12T11:34:46.603Z,8.55
2022-10-12T11:39:51.828Z,10.82
2022-10-12T11:44:54.673Z,10.80
2022-10-12T11:50:00.357Z,11.68
2022-10-12T11:55:38.966Z,15.98
2022-10-12T12:00:54.958Z,12.77
2022-10-12T12:05:56.500Z,10.07
2022-10-12T12:11:17.838Z,7.95
2022-10-12T12:16:19.179Z,10.43
2022-10-12T12:21:20.588Z,9.63
2022-10-12T12:26:28.228Z,14.82
2022-10-12T12:31:30.459Z,14.18
2022-10-12T12:36:34.206Z,12.85
2022-10-12T12:41:56.483Z,14.80
2022-10-12T12:47:01.971Z,9.85
2022-10-12T12:52:13.262Z,8.93
2022-10-12T12:57:52.932Z,9.55
2022-10-12T13:03:22.220Z,10.52
2022-10-12T13:08:35.121Z,16.23
2022-10-12T13:13:58.339Z,15.38
2022-10-12T13:19:05.904Z,8.60
2022-10-12T13:24:19.276Z,15.63
2022-10-12T13:29:51.944Z,14.75
2022-10-12T13:34:56.826Z,16.20
2022-10-12T13:39:58.463Z,14.43
2022-10-12T13:45:02.008Z,16.02
2022-10-12T13:50:15.842Z,10.32
2022-10-12T13:55:17.316Z,12.18
2022-10-12T14:00:21.508Z,12.13
2022-10-12T14:05:25.624Z,16.88
2022-10-12T14:10:32.717Z,14.55
2022-10-12T14:15:37.010Z,10.32
2022-10-12T14:20:39.261Z,14.75
2022-10-12T14:25:55.544Z,15.52
2022-10-12T14:30:57.166Z,13.97
2022-10-12T14:36:20.439Z,11.90
2022-10-12T14:41:37.832Z,11.98
2022-10-12T14:46:41.948Z,12.88
2022-10-12T14:51:43.536Z,10.65
2022-10-12T14:56:45.173Z,15.43
2022-10-12T15:01:51.236Z,12.18
2022-10-12T15:06:53.007Z,19.92
2022-10-12T15:11:54.346Z,16.25
2022-10-12T15:16:57.804Z,9.80
2022-10-12T15:21:59.343Z,14.38
2022-10-12T15:27:00.770Z,12.38
2022-10-12T15:32:02.156Z,19.02
2022-10-12T15:37:08.664Z,13.60
2022-10-12T15:42:12.423Z,15.75
2022-10-12T15:47:14.150Z,11.82
2022-10-12T15:52:17.334Z,11.90
2022-10-12T15:57:18.721Z,14.52
2022-10-12T16:02:27.462Z,15.23
2022-10-12T16:07:28.794Z,13.85
2022-10-12T16:12:30.187Z,11.95
2022-10-12T16:17:31.609Z,17.55
2022-10-12T16:22:33.248Z,12.88
2022-10-12T16:27:35.022Z,18.98
2022-10-12T16:32:36.650Z,16.17
2022-10-12T16:37:38.015Z,13.45
2022-10-12T16:42:39.774Z,14.50
2022-10-12T16:47:42.708Z,17.10
2022-10-12T16:52:44.690Z,16.65
2022-10-12T16:57:47.064Z,19.52
2022-10-12T17:02:48.545Z,21.13
2022-10-12T17:07:49.926Z,16.13
2022-10-12T17:12:51.288Z,17.05
2022-10-12T17:17:54.004Z,19.30
2022-10-12T17:22:55.382Z,19.20
2022-10-12T17:27:56.875Z,25.85
2022-10-12T17:32:58.227Z,28.73
2022-10-12T17:37:59.576Z,28.90
2022-10-12T17:43:00.921Z,22.98
2022-10-12T17:48:02.448Z,21.45
2022-10-12T17:53:03.807Z,16.80
2022-10-12T17:58:05.369Z,24.42
2022-10-12T18:03:06.809Z,26.30
2022-10-12T18:08:08.207Z,22.25
2022-10-12T18:13:09.717Z,18.88
2022-10-12T18:18:15.151Z,14.23
2022-10-12T18:23:17.155Z,18.90
2022-10-12T18:28:18.623Z,17.42
2022-10-12T18:33:20.096Z,28.73
2022-10-12T18:38:21.435Z,22.83
2022-10-12T18:43:22.807Z,20.73
2022-10-12T18:48:24.303Z,20.23
2022-10-12T18:53:28.032Z,20.25
2022-10-12T18:58:29.853Z,20.98
2022-10-12T19:03:31.229Z,23.40
2022-10-12T19:08:32.684Z,19.67
2022-10-12T19:13:37.450Z,23.40
2022-10-12T19:18:39.943Z,20.90
2022-10-12T19:23:44.295Z,21.02
2022-10-12T19:28:48.793Z,29.17
2022-10-12T19:33:50.532Z,31.90
2022-10-12T19:38:58.761Z,29.42
2022-10-12T19:44:01.352Z,31.25
2022-10-12T19:49:03.157Z,22.48
2022-10-12T19:54:05.177Z,26.08
2022-10-12T19:59:07.168Z,25.70
2022-10-12T20:04:11.868Z,27.70
2022-10-12T20:09:14.049Z,28.08
2022-10-12T20:14:15.787Z,23.30
2022-10-12T20:19:17.417Z,27.15
2022-10-12T20:24:20.021Z,27.20
2022-10-12T20:29:21.655Z,23.92
2022-10-12T20:34:23.334Z,31.85
2022-10-12T20:39:25.058Z,29.70
2022-10-12T20:44:26.598Z,26.70
2022-10-12T20:49:31.066Z,25.20
2022-10-12T20:54:33.227Z,23.42
2022-10-12T20:59:36.941Z,24.45
2022-10-12T21:04:38.632Z,27.02
2022-10-12T21:09:40.396Z,23.70
2022-10-12T21:14:41.995Z,24.75
2022-10-12T21:19:43.479Z,25.35
2022-10-12T21:24:45.039Z,24.30
2022-10-12T21:29:46.544Z,26.30
2022-10-12T21:34:48.388Z,28.05
2022-10-12T21:39:54.233Z,23.48
2022-10-12T21:44:56.178Z,19.83
2022-10-12T21:49:57.672Z,26.38
2022-10-12T21:54:59.185Z,24.67
2022-10-12T22:00:00.669Z,22.92
2022-10-12T22:05:02.224Z,20.02
2022-10-12T22:10:04.386Z,22.65
2022-10-12T22:15:08.000Z,24.83
2022-10-12T22:20:10.098Z,17.90
2022-10-12T22:25:11.613Z,18.50
2022-10-12T22:30:13.140Z,24.67
2022-10-12T22:35:14.847Z,22.65
2022-10-12T22:40:16.495Z,18.25
2022-10-12T22:45:17.920Z,19.85
2022-10-12T22:50:19.783Z,22.98
2022-10-12T22:55:22.591Z,22.70
2022-10-12T23:00:24.068Z,22.80
2022-10-12T23:05:26.100Z,18.00
2022-10-12T23:10:27.707Z,18.95
2022-10-12T23:15:29.298Z,22.00
2022-10-12T23:20:30.853Z,22.20
2022-10-12T23:25:32.360Z,17.25
2022-10-12T23:30:34.163Z,20.85
2022-10-12T23:46:16.209Z,20.73
2022-10-12T23:56:46.475Z,16.83
